Time;durP1;ratioP1;P1;durP2;ratioP2;P2;SDS_P1;SDS_P2;PMS_P1;PMS_P2;Temp;Humidity;BMP_temperature;BMP_pressure;BME280_temperature;BME280_humidity;BME280_pressure;Samples;Min_cycle;Max_cycle;Signal;HPM_P1;HPM_P2
2021/04/19 00:00:24;;;;;;;11.90;6.13;;;7.40;99.90;;;;;;5167759;28;20247;-71
2021/04/19 00:02:55;;;;;;;10.73;6.07;;;7.30;99.90;;;;;;5168118;28;20207;-71
2021/04/19 00:05:27;;;;;;;11.73;6.43;;;7.20;99.90;;;;;;5167961;28;20207;-71
2021/04/19 00:08:00;;;;;;;12.50;6.90;;;7.10;99.90;;;;;;5168545;28;20216;-71
2021/04/19 00:10:32;;;;;;;16.23;7.00;;;7.10;99.90;;;;;;5167919;28;20204;-71
2021/04/19 00:13:04;;;;;;;11.93;6.57;;;7.00;99.90;;;;;;5148621;28;20235;-70
2021/04/19 00:15:35;;;;;;;10.37;6.50;;;7.00;99.90;;;;;;5167886;28;20662;-70
2021/04/19 00:18:07;;;;;;;16.57;6.60;;;6.90;99.90;;;;;;5167772;28;20210;-70
2021/04/19 00:20:38;;;;;;;12.97;7.37;;;6.80;99.90;;;;;;5167270;28;20215;-70
2021/04/19 00:23:10;;;;;;;12.53;6.77;;;6.80;99.90;;;;;;5149322;28;20210;-71
2021/04/19 00:25:41;;;;;;;15.80;7.57;;;6.80;99.90;;;;;;5167350;28;20208;-71
2021/04/19 00:28:13;;;;;;;12.30;6.93;;;6.70;99.90;;;;;;5167385;28;20268;-71
2021/04/19 00:30:44;;;;;;;15.33;7.50;;;6.60;99.90;;;;;;5167321;28;20563;-70
2021/04/19 00:33:16;;;;;;;13.80;7.73;;;6.60;99.90;;;;;;5167195;28;20563;-71
2021/04/19 00:35:47;;;;;;;15.33;7.77;;;6.60;99.90;;;;;;5167295;28;20214;-71
2021/04/19 00:38:19;;;;;;;16.77;7.77;;;6.60;99.90;;;;;;5167446;28;20207;-71
2021/04/19 00:40:55;;;;;;;17.73;8.00;;;6.50;99.90;;;;;;5167314;28;20203;-70
2021/04/19 00:43:28;;;;;;;13.03;7.20;;;6.50;99.90;;;;;;5167303;28;20207;-71
2021/04/19 00:46:03;;;;;;;19.13;8.23;;;6.40;99.90;;;;;;5166883;28;20302;-70
2021/04/19 00:48:36;;;;;;;15.50;7.70;;;6.40;99.90;;;;;;5166853;28;20294;-70
2021/04/19 00:51:08;;;;;;;14.80;8.17;;;6.40;99.90;;;;;;5167031;28;20219;-71
2021/04/19 00:53:40;;;;;;;16.03;7.63;;;6.40;99.90;;;;;;5167037;28;20581;-71
2021/04/19 00:56:12;;;;;;;13.70;7.93;;;6.30;99.90;;;;;;5166860;28;20210;-71
2021/04/19 00:58:45;;;;;;;17.13;8.33;;;6.30;99.90;;;;;;5166588;28;20659;-70
2021/04/19 01:01:17;;;;;;;13.97;7.27;;;6.30;99.90;;;;;;5166676;28;20239;-71
2021/04/19 01:03:49;;;;;;;12.70;7.23;;;6.30;99.90;;;;;;5166939;28;20741;-71
2021/04/19 01:06:20;;;;;;;13.03;7.37;;;6.30;99.90;;;;;;5166650;28;20681;-70
2021/04/19 01:08:52;;;;;;;13.80;7.63;;;6.30;99.90;;;;;;5166708;28;20218;-72
2021/04/19 01:11:23;;;;;;;17.80;8.37;;;6.30;99.90;;;;;;5167148;28;20208;-71
2021/04/19 01:13:55;;;;;;;16.53;7.73;;;6.20;99.90;;;;;;5166546;28;20238;-70
2021/04/19 01:16:26;;;;;;;16.83;8.27;;;6.20;99.90;;;;;;5166436;28;20235;-71
2021/04/19 01:18:58;;;;;;;17.53;8.87;;;6.20;99.90;;;;;;5166363;28;20212;-71
2021/04/19 01:21:30;;;;;;;18.20;8.37;;;6.10;99.90;;;;;;5166576;28;20200;-70
2021/04/19 01:24:02;;;;;;;15.40;8.13;;;6.10;99.90;;;;;;5166605;28;20579;-70
2021/04/19 01:26:33;;;;;;;18.07;8.90;;;6.10;99.90;;;;;;5166260;28;20204;-71
2021/04/19 01:29:05;;;;;;;17.47;8.97;;;6.00;99.90;;;;;;5166359;28;20203;-71
2021/04/19 01:31:36;;;;;;;18.87;8.87;;;6.00;99.90;;;;;;5165946;28;20203;-71
2021/04/19 01:34:08;;;;;;;19.93;9.50;;;6.00;99.90;;;;;;5166070;28;20674;-70
2021/04/19 01:36:40;;;;;;;14.83;8.47;;;6.00;99.90;;;;;;5166260;28;20286;-70
2021/04/19 01:39:16;;;;;;;20.70;9.10;;;5.90;99.90;;;;;;5166529;28;20207;-71
2021/04/19 01:41:48;;;;;;;18.73;9.43;;;5.90;99.90;;;;;;5166329;28;20210;-70
2021/04/19 01:44:19;;;;;;;18.80;9.47;;;5.90;99.90;;;;;;5166431;28;20204;-72
2021/04/19 01:46:52;;;;;;;22.17;9.77;;;5.90;99.90;;;;;;5165721;28;20211;-69
2021/04/19 01:49:24;;;;;;;22.50;9.73;;;5.90;99.90;;;;;;5166230;28;20258;-69
2021/04/19 01:51:55;;;;;;;21.50;10.10;;;5.80;99.90;;;;;;5146433;28;20208;-69
2021/04/19 01:54:27;;;;;;;18.87;8.90;;;5.90;99.90;;;;;;5166083;28;20237;-72
2021/04/19 01:56:58;;;;;;;19.63;9.40;;;5.80;99.90;;;;;;5166488;28;20670;-71
2021/04/19 01:59:30;;;;;;;16.67;8.90;;;5.80;99.90;;;;;;5165802;28;20238;-73
2021/04/19 02:02:12;;;;;;;18.07;8.70;;;5.90;99.90;;;;;;5165955;28;20221;-70
2021/04/19 02:05:02;;;;;;;21.03;9.00;;;5.80;99.90;;;;;;5166594;28;20305;-70
2021/04/19 02:07:46;;;;;;;18.60;8.73;;;5.80;99.90;;;;;;5166180;28;20204;-70
2021/04/19 02:10:49;;;;;;;24.20;10.07;;;5.80;99.90;;;;;;5166058;28;20568;-71
2021/04/19 02:13:49;;;;;;;15.93;8.50;;;5.80;99.90;;;;;;5166138;28;20588;-71
2021/04/19 02:16:27;;;;;;;20.13;9.40;;;5.70;99.90;;;;;;5163935;28;20290;-70
2021/04/19 02:19:18;;;;;;;16.43;8.63;;;5.70;99.90;;;;;;5166051;28;20623;-71
2021/04/19 02:22:08;;;;;;;19.47;8.27;;;5.70;99.90;;;;;;5166113;28;20207;-69
2021/04/19 02:24:46;;;;;;;17.87;7.97;;;5.70;99.90;;;;;;5165773;28;20572;-68
2021/04/19 02:27:28;;;;;;;16.03;8.43;;;5.70;99.90;;;;;;5165979;28;20214;-68
2021/04/19 02:30:04;;;;;;;16.43;8.17;;;5.60;99.90;;;;;;5146146;28;20204;-68
2021/04/19 02:32:40;;;;;;;18.83;9.07;;;5.60;99.90;;;;;;5165596;28;20306;-70
2021/04/19 02:35:15;;;;;;;17.67;8.83;;;5.60;99.90;;;;;;5165574;28;20199;-70
2021/04/19 02:37:48;;;;;;;15.87;7.93;;;5.60;99.90;;;;;;5166001;28;20772;-71
2021/04/19 02:40:21;;;;;;;15.07;7.53;;;5.50;99.90;;;;;;5165758;28;20212;-72
2021/04/19 02:42:55;;;;;;;17.70;8.20;;;5.50;99.90;;;;;;5166177;28;20666;-70
2021/04/19 02:45:28;;;;;;;19.40;9.03;;;5.50;99.90;;;;;;5147134;28;20207;-71
2021/04/19 02:48:01;;;;;;;15.57;7.70;;;5.40;99.90;;;;;;5149305;28;20208;-70
2021/04/19 02:50:33;;;;;;;16.10;7.97;;;5.40;99.90;;;;;;5169341;28;20207;-70
2021/04/19 02:53:05;;;;;;;17.93;7.57;;;5.40;99.90;;;;;;5169281;28;20227;-70
2021/04/19 02:55:38;;;;;;;16.07;7.93;;;5.40;99.90;;;;;;5169389;28;20665;-70
2021/04/19 02:58:10;;;;;;;16.57;8.40;;;5.30;99.90;;;;;;5169160;28;20210;-69
2021/04/19 03:00:47;;;;;;;15.73;8.27;;;5.30;99.90;;;;;;5169107;28;20752;-70
2021/04/19 03:03:25;;;;;;;16.03;8.27;;;5.30;99.90;;;;;;5160970;28;20207;-68
2021/04/19 03:05:58;;;;;;;18.47;8.47;;;5.30;99.90;;;;;;5170141;28;20214;-72
2021/04/19 03:08:36;;;;;;;15.17;7.27;;;5.30;99.90;;;;;;5169744;28;20210;-70
2021/04/19 03:11:15;;;;;;;18.80;8.17;;;5.30;99.90;;;;;;5169155;28;20570;-70
2021/04/19 03:13:48;;;;;;;19.17;8.67;;;5.30;99.90;;;;;;5169226;28;20231;-70
2021/04/19 03:16:27;;;;;;;19.07;8.67;;;5.30;99.90;;;;;;5169145;28;20570;-70
2021/04/19 03:19:02;;;;;;;15.93;9.13;;;5.30;99.90;;;;;;5149018;28;20212;-69
2021/04/19 03:21:37;;;;;;;19.90;9.70;;;5.30;99.90;;;;;;5168686;28;20561;-69
2021/04/19 03:24:09;;;;;;;17.03;9.10;;;5.30;99.90;;;;;;5168850;28;20207;-70
2021/04/19 03:26:43;;;;;;;15.20;8.90;;;5.30;99.90;;;;;;5168874;28;20226;-69
2021/04/19 03:29:16;;;;;;;23.27;9.43;;;5.20;99.90;;;;;;5168847;28;20218;-70
2021/04/19 03:31:51;;;;;;;17.50;9.27;;;5.20;99.90;;;;;;5168540;28;20207;-69
2021/04/19 03:34:28;;;;;;;17.70;9.00;;;5.20;99.90;;;;;;5168663;28;20233;-70
2021/04/19 03:37:12;;;;;;;15.07;9.10;;;5.20;99.90;;;;;;5169109;28;20300;-70
2021/04/19 03:39:50;;;;;;;15.67;8.73;;;5.20;99.90;;;;;;5168428;28;20222;-70
2021/04/19 03:42:24;;;;;;;17.47;9.30;;;5.20;99.90;;;;;;5168830;28;20583;-71
2021/04/19 03:44:58;;;;;;;15.90;9.67;;;5.20;99.90;;;;;;5148121;28;20215;-69
2021/04/19 03:47:32;;;;;;;15.63;8.57;;;5.20;99.90;;;;;;5147216;28;20208;-70
2021/04/19 03:50:05;;;;;;;14.30;8.47;;;5.20;99.90;;;;;;5167124;28;20709;-70
2021/04/19 03:52:39;;;;;;;16.20;8.80;;;5.20;99.90;;;;;;5168389;28;20683;-71
2021/04/19 03:55:14;;;;;;;15.97;8.77;;;5.20;99.90;;;;;;5167659;28;20771;-69
2021/04/19 03:57:48;;;;;;;20.60;10.23;;;5.30;99.90;;;;;;5168325;28;20207;-69
2021/04/19 04:00:21;;;;;;;17.60;9.70;;;5.30;99.90;;;;;;5167918;28;20243;-69
2021/04/19 04:02:55;;;;;;;18.70;10.27;;;5.30;99.90;;;;;;5167786;28;20663;-70
2021/04/19 04:05:27;;;;;;;18.20;10.10;;;5.40;99.90;;;;;;5167747;28;20203;-70
2021/04/19 04:07:59;;;;;;;20.70;10.27;;;5.40;99.90;;;;;;5168062;28;20666;-71
2021/04/19 04:10:33;;;;;;;20.23;9.87;;;5.50;99.90;;;;;;5167681;28;20208;-68
2021/04/19 04:13:04;;;;;;;22.70;11.00;;;5.50;99.90;;;;;;5167515;28;20207;-70
2021/04/19 04:15:35;;;;;;;21.03;10.33;;;5.60;99.90;;;;;;5167814;28;20681;-70
2021/04/19 04:18:07;;;;;;;19.53;10.30;;;5.60;99.90;;;;;;5167212;28;20206;-70
2021/04/19 04:20:38;;;;;;;21.20;9.87;;;5.60;99.90;;;;;;5167772;28;20594;-70
2021/04/19 04:23:10;;;;;;;19.63;10.07;;;5.70;99.90;;;;;;5167883;28;20540;-70
2021/04/19 04:25:42;;;;;;;18.83;10.50;;;5.80;99.90;;;;;;5167669;28;20254;-72
2021/04/19 04:28:14;;;;;;;20.73;11.43;;;5.90;99.90;;;;;;5167651;28;20214;-70
2021/04/19 04:30:45;;;;;;;16.37;9.73;;;5.90;99.90;;;;;;5167652;28;20222;-70
2021/04/19 04:33:17;;;;;;;23.57;11.73;;;6.00;99.90;;;;;;5167002;28;20227;-69
2021/04/19 04:35:48;;;;;;;18.17;10.03;;;6.10;99.90;;;;;;5167332;28;20208;-70
2021/04/19 04:38:20;;;;;;;21.10;12.23;;;6.20;99.90;;;;;;5167542;28;20596;-69
2021/04/19 04:40:51;;;;;;;20.10;11.37;;;6.30;99.90;;;;;;5167937;28;20226;-70
2021/04/19 04:43:26;;;;;;;23.83;11.50;;;6.30;99.90;;;;;;5165079;28;20210;-70
2021/04/19 04:46:11;;;;;;;21.50;11.13;;;6.40;99.90;;;;;;5150218;28;20203;-69
2021/04/19 04:49:02;;;;;;;18.97;10.87;;;6.50;99.90;;;;;;5166831;28;20211;-70
2021/04/19 04:51:35;;;;;;;21.03;11.03;;;6.60;99.90;;;;;;5140705;28;20216;-68
2021/04/19 04:54:14;;;;;;;23.30;11.90;;;6.60;99.90;;;;;;5146482;28;20232;-68
2021/04/19 04:56:51;;;;;;;17.73;9.90;;;6.70;99.90;;;;;;5146719;28;20212;-67
2021/04/19 04:59:24;;;;;;;22.80;11.93;;;6.80;99.90;;;;;;5146488;28;20550;-68
2021/04/19 05:01:56;;;;;;;23.47;11.77;;;6.90;99.90;;;;;;5146596;28;20514;-68
2021/04/19 05:04:29;;;;;;;22.27;11.73;;;7.00;99.90;;;;;;5146400;28;20208;-68
2021/04/19 05:07:01;;;;;;;22.77;11.53;;;7.10;99.90;;;;;;5145925;28;20227;-69
2021/04/19 05:09:33;;;;;;;22.87;11.13;;;7.20;99.90;;;;;;5146945;28;20203;-68
2021/04/19 05:12:05;;;;;;;20.30;11.70;;;7.30;99.90;;;;;;5127584;28;20213;-68
2021/04/19 05:14:38;;;;;;;24.97;12.17;;;7.40;99.90;;;;;;5146279;28;20623;-69
2021/04/19 05:17:10;;;;;;;24.37;12.23;;;7.50;99.90;;;;;;5146358;28;20678;-68
2021/04/19 05:19:41;;;;;;;24.40;11.37;;;7.60;99.90;;;;;;5148738;28;20203;-69
2021/04/19 05:22:13;;;;;;;24.40;11.60;;;7.70;99.90;;;;;;5151534;28;20211;-70
2021/04/19 05:24:45;;;;;;;20.63;12.57;;;7.80;99.90;;;;;;5146330;28;20219;-67
2021/04/19 05:27:16;;;;;;;30.17;14.03;;;7.80;99.90;;;;;;5146335;28;20212;-69
2021/04/19 05:29:48;;;;;;;39.57;13.60;;;8.00;99.90;;;;;;5146513;28;20208;-68
2021/04/19 05:32:21;;;;;;;26.40;11.43;;;8.10;99.90;;;;;;5146456;28;20564;-68
2021/04/19 05:34:55;;;;;;;28.10;12.40;;;8.30;99.90;;;;;;5146599;28;20376;-66
2021/04/19 05:37:27;;;;;;;25.23;12.07;;;8.40;99.90;;;;;;5146478;28;20220;-66
2021/04/19 05:39:58;;;;;;;32.87;13.67;;;8.60;99.90;;;;;;5146100;28;20557;-71
2021/04/19 05:42:30;;;;;;;32.93;14.00;;;8.80;99.90;;;;;;5146040;28;20208;-69
2021/04/19 05:45:02;;;;;;;25.10;12.20;;;8.90;99.90;;;;;;5145902;28;20212;-78
2021/04/19 05:47:34;;;;;;;38.97;14.30;;;9.00;99.90;;;;;;5145801;28;20204;-70
2021/04/19 05:50:06;;;;;;;21.70;11.83;;;9.20;99.90;;;;;;5145983;28;20263;-68
2021/04/19 05:52:38;;;;;;;24.73;12.67;;;9.40;99.90;;;;;;5145885;28;20211;-69
2021/04/19 05:55:10;;;;;;;26.53;13.70;;;9.50;99.90;;;;;;5145996;28;20243;-69
2021/04/19 05:58:11;;;;;;;29.87;11.97;;;9.70;99.90;;;;;;5146351;28;20211;-68
2021/04/19 06:00:56;;;;;;;23.43;12.07;;;9.90;99.90;;;;;;5145564;28;20240;-70
2021/04/19 06:03:42;;;;;;;28.80;11.70;;;10.10;99.90;;;;;;5145732;28;20298;-65
2021/04/19 06:06:42;;;;;;;26.13;12.47;;;10.30;99.90;;;;;;5145661;28;20604;-69
2021/04/19 06:09:19;;;;;;;23.27;12.40;;;10.50;99.90;;;;;;5138259;28;20214;-67
2021/04/19 06:12:06;;;;;;;22.07;11.47;;;10.70;99.90;;;;;;5147937;28;20215;-66
2021/04/19 06:14:46;;;;;;;25.03;11.13;;;10.90;99.90;;;;;;5067131;28;21608;-64
2021/04/19 06:17:20;;;;;;;23.53;10.77;;;11.10;99.90;;;;;;5099917;28;20222;-68
2021/04/19 06:19:53;;;;;;;22.43;9.33;;;11.30;99.90;;;;;;5113897;28;20302;-68
2021/04/19 06:22:24;;;;;;;18.10;9.53;;;11.40;99.90;;;;;;5161671;28;20214;-69
2021/04/19 06:24:56;;;;;;;20.33;9.23;;;11.80;99.90;;;;;;5159797;28;20203;-65
2021/04/19 06:27:28;;;;;;;18.40;9.33;;;13.10;99.90;;;;;;5164277;28;20204;-66
2021/04/19 06:30:16;;;;;;;19.97;8.63;;;14.80;99.90;;;;;;5148194;28;20196;-70
2021/04/19 06:32:50;;;;;;;15.67;9.13;;;16.60;99.90;;;;;;5162937;28;20776;-69
2021/04/19 06:35:21;;;;;;;26.15;9.73;;;18.40;99.90;;;;;;5165207;28;20729;-68
2021/04/19 06:37:57;;;;;;;20.45;9.27;;;19.50;99.90;;;;;;5144547;28;20211;-57
2021/04/19 06:40:28;;;;;;;20.02;9.05;;;20.40;99.90;;;;;;5156039;28;20221;-70
2021/04/19 06:43:00;;;;;;;17.20;8.48;;;21.40;99.90;;;;;;5148258;28;20210;-75
2021/04/19 06:45:36;;;;;;;20.15;9.77;;;21.70;99.30;;;;;;5166210;28;20195;-74
2021/04/19 06:48:10;;;;;;;15.88;9.13;;;21.50;96.60;;;;;;5164891;28;20223;-73
2021/04/19 06:50:42;;;;;;;15.55;8.05;;;21.50;95.90;;;;;;5164873;28;20203;-71
2021/04/19 06:53:14;;;;;;;15.75;7.13;;;22.30;95.80;;;;;;5165552;28;20214;-73
2021/04/19 06:55:45;;;;;;;15.95;7.90;;;22.50;93.30;;;;;;5147477;28;20751;-73
2021/04/19 06:58:20;;;;;;;11.50;6.72;;;23.00;92.30;;;;;;5166405;28;20654;-75
2021/04/19 07:00:54;;;;;;;10.85;6.43;;;23.60;91.10;;;;;;5147712;28;20239;-71
2021/04/19 07:03:28;;;;;;;16.00;8.02;;;24.10;89.40;;;;;;5148773;28;20285;-74
2021/04/19 07:06:02;;;;;;;12.57;7.75;;;24.40;84.90;;;;;;5147302;28;20271;-75
2021/04/19 07:08:48;;;;;;;16.52;8.73;;;24.30;83.10;;;;;;5158955;28;20199;-71
2021/04/19 07:11:21;;;;;;;19.58;8.68;;;24.30;78.90;;;;;;5163889;28;20203;-72
2021/04/19 07:13:53;;;;;;;19.83;9.32;;;23.70;79.40;;;;;;5148782;28;20544;-69
2021/04/19 07:16:25;;;;;;;19.65;9.68;;;24.10;79.40;;;;;;5165585;28;20203;-76
2021/04/19 07:19:02;;;;;;;14.05;8.85;;;23.80;77.50;;;;;;5164416;28;20196;-73
2021/04/19 07:21:35;;;;;;;15.15;8.90;;;23.40;78.10;;;;;;5143413;28;20203;-73
2021/04/19 07:24:07;;;;;;;14.45;9.10;;;23.40;77.20;;;;;;5164785;28;20204;-72
2021/04/19 07:26:39;;;;;;;16.35;9.02;;;22.80;76.60;;;;;;5162645;28;20207;-62
2021/04/19 07:29:11;;;;;;;16.67;8.45;;;22.50;76.10;;;;;;5158504;28;20204;-63
2021/04/19 07:31:50;;;;;;;15.02;8.98;;;22.10;78.00;;;;;;5164275;28;20200;-63
2021/04/19 07:34:23;;;;;;;21.00;10.20;;;21.80;77.80;;;;;;5164653;28;20344;-63
2021/04/19 07:37:04;;;;;;;16.42;8.75;;;22.00;77.20;;;;;;5164608;28;20216;-61
2021/04/19 07:39:38;;;;;;;17.15;10.27;;;21.40;77.00;;;;;;5163829;28;20204;-62
2021/04/19 07:42:11;;;;;;;16.98;9.18;;;20.90;79.60;;;;;;5164296;28;20202;-62
2021/04/19 07:44:42;;;;;;;16.67;9.30;;;20.50;78.60;;;;;;5163771;28;20203;-63
2021/04/19 07:47:26;;;;;;;19.17;9.55;;;19.80;82.20;;;;;;5163976;28;20206;-62
2021/04/19 07:49:59;;;;;;;15.48;9.82;;;18.90;84.20;;;;;;5163253;28;20204;-65
2021/04/19 07:52:33;;;;;;;18.15;9.38;;;18.60;85.10;;;;;;5162665;28;20203;-62
2021/04/19 07:55:13;;;;;;;16.23;8.70;;;18.20;86.00;;;;;;5145582;28;20222;-64
2021/04/19 07:58:28;;;;;;;17.40;8.50;;;17.90;86.10;;;;;;5164419;28;20250;-62
2021/04/19 08:01:04;;;;;;;17.63;8.60;;;17.50;86.30;;;;;;5160987;28;20378;-64
2021/04/19 08:03:40;;;;;;;18.98;8.55;;;17.30;86.10;;;;;;5163109;28;20207;-64
2021/04/19 08:06:19;;;;;;;18.23;9.65;;;16.90;88.80;;;;;;5164478;28;20238;-75
2021/04/19 08:09:04;;;;;;;23.10;9.90;;;17.10;90.60;;;;;;5154075;28;20215;-67
2021/04/19 08:11:43;;;;;;;20.27;8.93;;;17.20;91.00;;;;;;5161127;28;20195;-68
2021/04/19 08:14:15;;;;;;;18.88;9.18;;;17.30;90.90;;;;;;5164123;28;20214;-73
2021/04/19 08:17:04;;;;;;;16.95;9.40;;;17.30;90.00;;;;;;5163119;28;20226;-68
2021/04/19 08:19:39;;;;;;;15.18;9.95;;;17.30;90.20;;;;;;5165398;28;20242;-72
2021/04/19 08:22:27;;;;;;;17.95;9.13;;;17.20;90.20;;;;;;5165169;28;20195;-75
2021/04/19 08:25:12;;;;;;;16.08;9.68;;;17.20;89.50;;;;;;5164414;28;20219;-70
2021/04/19 08:27:59;;;;;;;16.75;8.93;;;17.00;90.40;;;;;;5163871;28;20196;-66
2021/04/19 08:30:31;;;;;;;17.63;9.57;;;17.10;90.20;;;;;;5143675;28;20207;-65
2021/04/19 08:33:04;;;;;;;17.55;7.93;;;17.00;90.20;;;;;;5160392;28;21024;-62
2021/04/19 08:35:37;;;;;;;14.02;8.05;;;17.30;90.80;;;;;;5164406;28;20354;-70
2021/04/19 08:38:09;;;;;;;15.32;8.57;;;17.20;86.40;;;;;;5164613;28;20196;-64
2021/04/19 08:40:41;;;;;;;15.65;9.48;;;17.30;88.30;;;;;;5146732;28;20695;-71
2021/04/19 08:43:18;;;;;;;13.88;8.43;;;17.30;88.90;;;;;;5163155;28;20199;-67
2021/04/19 08:45:51;;;;;;;16.75;8.45;;;17.40;90.30;;;;;;5162024;28;20577;-68
2021/04/19 08:48:23;;;;;;;18.50;7.47;;;17.50;88.00;;;;;;5163505;28;20861;-68
2021/04/19 08:50:58;;;;;;;14.00;7.82;;;17.50;86.00;;;;;;5163127;28;20207;-66
2021/04/19 08:53:30;;;;;;;18.42;8.30;;;17.30;83.80;;;;;;5164672;28;20195;-67
2021/04/19 08:56:09;;;;;;;18.25;8.05;;;16.60;84.80;;;;;;5145622;28;20226;-73
2021/04/19 08:58:43;;;;;;;22.57;8.27;;;16.40;87.30;;;;;;5166421;28;20195;-73
2021/04/19 09:01:15;;;;;;;17.55;7.85;;;16.50;83.90;;;;;;5165318;28;20705;-75
2021/04/19 09:04:07;;;;;;;13.80;6.57;;;16.70;85.60;;;;;;5165788;28;20699;-75
2021/04/19 09:06:46;;;;;;;14.37;6.97;;;16.90;84.40;;;;;;5166187;28;20642;-75
2021/04/19 09:09:32;;;;;;;11.97;6.00;;;17.00;83.20;;;;;;5166840;28;20553;-76
2021/04/19 09:12:19;;;;;;;11.73;6.57;;;16.80;80.30;;;;;;5166992;28;20199;-76
2021/04/19 09:15:09;;;;;;;14.70;7.13;;;16.70;82.10;;;;;;5166650;28;20234;-77
2021/04/19 09:17:42;;;;;;;14.73;7.53;;;16.60;80.80;;;;;;5166026;28;20286;-72
2021/04/19 09:20:14;;;;;;;12.57;6.70;;;16.70;82.60;;;;;;5165318;28;20219;-72
2021/04/19 09:22:46;;;;;;;13.33;7.10;;;16.80;81.70;;;;;;5165458;28;20210;-73
2021/04/19 09:25:17;;;;;;;11.47;5.90;;;16.60;80.60;;;;;;5165700;28;20242;-72
2021/04/19 09:27:52;;;;;;;11.30;6.50;;;16.50;81.20;;;;;;5165823;28;20688;-74
2021/04/19 09:30:30;;;;;;;11.20;5.90;;;16.50;81.70;;;;;;5165471;28;20199;-74
2021/04/19 09:36:52;;;;;;;12.50;5.93;;;15.90;81.20;;;;;;5165661;28;20187;-77
2021/04/19 09:39:46;;;;;;;14.83;6.20;;;16.00;80.90;;;;;;5165533;28;20218;-77
2021/04/19 09:42:38;;;;;;;14.30;5.90;;;16.20;83.10;;;;;;5165472;28;20196;-76
2021/04/19 09:45:10;;;;;;;18.63;6.47;;;16.20;82.30;;;;;;5162583;28;20245;-76
2021/04/19 09:47:51;;;;;;;12.17;6.57;;;16.20;81.90;;;;;;5163493;28;20646;-70
2021/04/19 09:54:23;;;;;;;17.30;7.80;;;16.10;82.90;;;;;;5164994;28;20218;-71
2021/04/19 09:56:55;;;;;;;14.17;6.53;;;16.00;82.00;;;;;;5170371;28;20614;-74
2021/04/19 09:59:27;;;;;;;10.77;6.30;;;16.00;82.60;;;;;;5170472;28;20205;-73
2021/04/19 10:01:59;;;;;;;11.60;6.60;;;15.80;82.40;;;;;;5172211;28;20191;-79
2021/04/19 10:04:41;;;;;;;14.17;7.67;;;15.70;84.40;;;;;;5173858;28;20636;-81
2021/04/19 10:07:14;;;;;;;13.47;6.87;;;15.60;84.50;;;;;;5173282;28;20191;-75
2021/04/19 10:09:47;;;;;;;14.33;7.00;;;15.60;83.80;;;;;;5175436;28;20202;-74
2021/04/19 10:12:21;;;;;;;12.43;6.40;;;15.50;83.80;;;;;;5170250;28;20196;-77
2021/04/19 10:14:52;;;;;;;16.67;7.30;;;15.60;84.80;;;;;;5170672;28;20223;-81
2021/04/19 10:17:27;;;;;;;15.87;7.00;;;15.50;85.60;;;;;;5156371;28;20202;-79
2021/04/19 10:20:25;;;;;;;15.00;7.70;;;15.50;86.10;;;;;;5172106;28;20560;-75
2021/04/19 10:23:14;;;;;;;13.90;6.27;;;15.60;85.50;;;;;;5171916;28;20496;-71
2021/04/19 10:25:53;;;;;;;13.07;6.53;;;15.50;85.60;;;;;;5170715;28;20206;-75
2021/04/19 10:28:35;;;;;;;12.10;7.17;;;15.50;86.30;;;;;;5170656;28;20358;-77
2021/04/19 10:31:21;;;;;;;15.17;7.53;;;15.40;85.20;;;;;;5172282;28;20195;-81
2021/04/19 10:37:49;;;;;;;11.40;6.77;;;15.30;88.50;;;;;;5173648;28;20249;-79
2021/04/19 10:40:21;;;;;;;17.07;7.60;;;15.20;85.70;;;;;;5170215;28;20200;-76
2021/04/19 10:43:02;;;;;;;16.80;7.33;;;15.10;85.80;;;;;;5153525;28;20214;-78
2021/04/19 10:45:35;;;;;;;11.10;7.30;;;14.80;86.80;;;;;;5169810;28;20223;-72
2021/04/19 10:52:36;;;;;;;12.90;6.97;;;14.90;89.60;;;;;;5067843;29;20603;-70
2021/04/19 10:55:09;;;;;;;9.43;7.20;;;14.80;90.20;;;;;;5063397;29;20585;-71
2021/04/19 10:57:41;;;;;;;19.13;7.73;;;14.90;90.10;;;;;;5062495;29;20206;-71
2021/04/19 11:00:13;;;;;;;17.07;8.67;;;14.70;88.10;;;;;;5070245;29;20250;-75
2021/04/19 11:02:46;;;;;;;14.57;8.80;;;14.50;87.80;;;;;;5071359;29;20206;-70
2021/04/19 11:09:17;;;;;;;14.60;8.10;;;14.30;88.30;;;;;;5069466;29;20695;-75
2021/04/19 11:11:51;;;;;;;14.47;7.37;;;14.30;88.70;;;;;;5052819;29;20661;-71
2021/04/19 11:14:34;;;;;;;13.60;7.00;;;14.20;87.60;;;;;;5068377;29;20230;-77
2021/04/19 11:17:09;;;;;;;20.10;6.73;;;14.20;88.90;;;;;;5069357;29;20207;-78
2021/04/19 11:19:46;;;;;;;15.13;6.80;;;14.30;88.70;;;;;;5069473;29;20231;-76
2021/04/19 11:22:22;;;;;;;12.70;6.70;;;14.20;88.00;;;;;;5069010;29;20744;-73
2021/04/19 11:25:19;;;;;;;15.20;6.70;;;14.20;88.50;;;;;;5068252;29;20271;-81
2021/04/19 11:27:53;;;;;;;14.37;6.47;;;14.10;86.50;;;;;;5104248;28;20775;-73
2021/04/19 11:30:27;;;;;;;11.83;5.87;;;14.00;87.60;;;;;;5167845;28;20195;-75
2021/04/19 11:33:05;;;;;;;10.97;6.73;;;14.20;88.80;;;;;;5167496;28;20199;-77
2021/04/19 11:35:41;;;;;;;11.37;6.23;;;14.30;88.60;;;;;;5167270;28;20242;-76
2021/04/19 11:38:22;;;;;;;12.30;5.53;;;14.40;88.80;;;;;;5165989;28;20223;-76
2021/04/19 11:40:59;;;;;;;9.90;5.43;;;14.40;87.00;;;;;;5165559;28;20203;-79
2021/04/19 11:43:50;;;;;;;11.77;5.53;;;14.40;87.40;;;;;;5166581;28;20631;-78
2021/04/19 11:46:23;;;;;;;10.73;5.30;;;14.60;87.50;;;;;;5167969;28;20227;-74
2021/04/19 11:52:51;;;;;;;10.70;5.73;;;14.60;84.90;;;;;;5166830;28;20604;-72
2021/04/19 11:55:24;;;;;;;15.43;6.60;;;14.50;84.90;;;;;;5135131;28;20219;-74
2021/04/19 11:57:56;;;;;;;11.63;5.50;;;14.40;85.70;;;;;;5154651;28;20207;-77
2021/04/19 12:00:28;;;;;;;9.33;5.63;;;14.30;86.40;;;;;;5165921;28;20301;-73
2021/04/19 12:03:00;;;;;;;10.70;5.40;;;14.40;86.50;;;;;;5150838;28;20202;-77
2021/04/19 12:09:27;;;;;;;9.07;4.70;;;14.40;85.30;;;;;;5167409;28;20266;-73
2021/04/19 12:11:58;;;;;;;12.50;5.40;;;14.50;86.10;;;;;;5167741;28;20202;-75
2021/04/19 12:14:30;;;;;;;11.23;4.33;;;14.50;85.10;;;;;;5167606;28;20282;-76
2021/04/19 12:17:09;;;;;;;8.67;4.33;;;14.40;85.10;;;;;;5167611;28;20202;-70
2021/04/19 12:19:41;;;;;;;9.33;4.93;;;14.30;86.10;;;;;;5169406;28;20199;-75
2021/04/19 12:22:13;;;;;;;8.90;4.23;;;14.20;86.60;;;;;;5167126;28;20278;-76
2021/04/19 12:24:44;;;;;;;9.20;3.90;;;14.20;86.50;;;;;;5168116;28;20639;-77
2021/04/19 12:27:16;;;;;;;18.60;4.90;;;14.30;87.00;;;;;;5169278;28;20196;-75
2021/04/19 12:29:47;;;;;;;7.93;4.40;;;14.40;86.60;;;;;;5168868;28;20738;-74
2021/04/19 12:32:19;;;;;;;10.77;4.37;;;14.30;84.70;;;;;;5165238;28;20202;-69
2021/04/19 12:34:51;;;;;;;8.27;3.90;;;14.30;85.20;;;;;;5162911;28;20751;-73
2021/04/19 12:37:23;;;;;;;11.00;4.10;;;14.30;86.30;;;;;;5163562;28;20192;-74
2021/04/19 12:39:54;;;;;;;8.20;4.20;;;14.40;85.30;;;;;;5161301;28;20215;-70
2021/04/19 12:42:25;;;;;;;10.07;4.00;;;14.50;85.60;;;;;;5164319;28;20219;-71
2021/04/19 12:44:57;;;;;;;9.03;4.03;;;14.60;84.70;;;;;;5156678;28;20199;-75
2021/04/19 12:47:28;;;;;;;6.40;3.67;;;14.60;83.40;;;;;;5163693;28;20195;-76
2021/04/19 12:50:01;;;;;;;11.43;3.83;;;14.40;83.30;;;;;;5166123;28;20204;-75
2021/04/19 12:52:33;;;;;;;7.47;3.90;;;14.40;84.50;;;;;;5166726;28;20681;-66
2021/04/19 12:55:05;;;;;;;11.33;3.77;;;14.50;84.30;;;;;;5161799;28;20243;-68
2021/04/19 12:57:36;;;;;;;16.93;4.30;;;14.30;84.70;;;;;;5164398;28;20192;-76
2021/04/19 13:00:08;;;;;;;6.70;3.83;;;14.20;83.10;;;;;;5166686;28;20245;-79
2021/04/19 13:02:39;;;;;;;15.27;4.30;;;14.10;84.50;;;;;;5163847;28;20191;-79
2021/04/19 13:05:19;;;;;;;9.23;4.57;;;14.10;83.80;;;;;;5082578;28;20410;-75
2021/04/19 13:08:05;;;;;;;7.20;3.83;;;14.20;84.00;;;;;;5059599;28;20713;-70
2021/04/19 13:10:44;;;;;;;5.30;3.80;;;14.10;84.70;;;;;;5039835;28;20196;-71
2021/04/19 13:13:21;;;;;;;12.47;4.13;;;14.00;84.00;;;;;;5116506;28;20207;-78
2021/04/19 13:15:52;;;;;;;23.93;5.50;;;14.10;84.80;;;;;;5155947;28;20591;-71
2021/04/19 13:18:23;;;;;;;10.67;4.13;;;14.00;84.30;;;;;;5153690;28;20213;-76
2021/04/19 13:20:55;;;;;;;7.50;4.47;;;14.10;85.00;;;;;;5161487;28;20195;-76
2021/04/19 13:23:27;;;;;;;8.03;4.37;;;14.20;84.80;;;;;;5165689;28;20546;-76
2021/04/19 13:25:58;;;;;;;11.57;4.50;;;14.30;84.20;;;;;;5166588;28;20222;-72
2021/04/19 13:28:30;;;;;;;12.23;4.83;;;14.30;84.50;;;;;;5164987;28;20283;-76
2021/04/19 13:31:02;;;;;;;10.53;4.80;;;14.20;83.90;;;;;;5165582;28;20718;-76
2021/04/19 13:33:33;;;;;;;9.50;4.80;;;14.20;83.80;;;;;;5151202;28;20195;-77
2021/04/19 13:36:05;;;;;;;11.60;4.73;;;14.20;83.30;;;;;;5165002;28;20288;-75
2021/04/19 13:38:37;;;;;;;12.47;4.10;;;14.20;83.40;;;;;;5147568;28;20195;-78
2021/04/19 13:41:10;;;;;;;9.47;4.40;;;14.20;83.60;;;;;;5163089;28;20246;-80
2021/04/19 13:43:42;;;;;;;13.53;4.40;;;14.20;83.70;;;;;;5166687;28;20192;-72
2021/04/19 13:46:14;;;;;;;8.17;3.87;;;14.30;83.30;;;;;;5166362;28;20196;-78
2021/04/19 13:48:45;;;;;;;11.60;4.10;;;14.30;83.60;;;;;;5166021;28;20196;-75